Time;durP1;ratioP1;P1;durP2;ratioP2;P2;SDS_P1;SDS_P2;PMS_P1;PMS_P2;Temp;Humidity;BMP_temperature;BMP_pressure;BME280_temperature;BME280_humidity;BME280_pressure;Samples;Min_cycle;Max_cycle;Signal;HPM_P1;HPM_P2
2023/06/16 00:04:05;;;;;;;4.85;2.90;;;;;;;14.40;67.81;97750.25;10516561;28;20130;-68
2023/06/16 00:09:26;;;;;;;5.50;2.80;;;;;;;14.23;67.73;97737.44;10546353;28;20526;-69
2023/06/16 00:14:47;;;;;;;6.25;3.55;;;;;;;14.10;67.86;97736.06;10516627;28;20102;-69
2023/06/16 00:20:08;;;;;;;4.38;3.03;;;;;;;14.01;67.84;97726.47;10516592;28;20059;-68
2023/06/16 00:25:28;;;;;;;6.45;3.35;;;;;;;13.94;68.06;97730.28;10530144;28;20064;-67
2023/06/16 00:30:49;;;;;;;4.35;3.20;;;;;;;13.85;68.21;97734.00;10530186;28;20508;-67
2023/06/16 00:36:09;;;;;;;4.18;2.97;;;;;;;13.81;68.44;97736.59;10529691;28;20122;-69
2023/06/16 00:41:30;;;;;;;3.83;2.80;;;;;;;13.80;68.73;97735.16;10544705;28;20070;-69
2023/06/16 00:46:51;;;;;;;5.32;3.17;;;;;;;13.74;68.80;97724.31;10515425;28;20166;-69
2023/06/16 00:52:12;;;;;;;4.03;2.75;;;;;;;13.69;69.00;97728.22;10501301;28;20070;-69
2023/06/16 00:57:33;;;;;;;4.50;3.03;;;;;;;13.67;69.06;97725.31;10515276;28;20072;-68
2023/06/16 01:02:55;;;;;;;5.55;3.25;;;;;;;13.62;69.30;97723.66;10512500;28;20116;-69
2023/06/16 01:08:25;;;;;;;4.80;2.90;;;;;;;13.64;69.08;97720.94;10486297;28;20060;-69
2023/06/16 01:14:03;;;;;;;5.57;3.00;;;;;;;13.54;69.58;97719.66;10486795;28;20501;-69
2023/06/16 01:19:37;;;;;;;4.65;3.03;;;;;;;13.50;69.60;97717.34;10486140;28;20067;-69
2023/06/16 01:24:59;;;;;;;;;;;;;;;13.45;70.28;97727.63;10460680;28;20067;-69
2023/06/16 01:30:22;;;;;;;4.00;2.83;;;;;;;13.43;69.71;97727.50;10500716;28;20392;-68
2023/06/16 01:35:43;;;;;;;;;;;;;;;13.40;70.31;97723.13;10458988;28;20102;-69
2023/06/16 01:41:05;;;;;;;5.90;2.92;;;;;;;13.32;69.95;97717.06;10500557;28;19956;-68
2023/06/16 01:46:26;;;;;;;4.30;3.13;;;;;;;13.28;70.05;97719.63;10454850;28;20525;-68
2023/06/16 01:51:46;;;;;;;7.50;3.15;;;;;;;13.24;70.03;97715.88;10471187;28;20090;-69
2023/06/16 01:57:07;;;;;;;5.18;2.90;;;;;;;13.21;69.88;97729.03;10484620;28;20036;-68
2023/06/16 02:02:28;;;;;;;5.70;2.90;;;;;;;13.13;70.19;97723.69;10468763;28;20068;-68
2023/06/16 02:07:50;;;;;;;4.18;2.80;;;;;;;13.13;70.41;97728.56;10526361;28;20040;-68
2023/06/16 02:13:10;;;;;;;4.47;2.72;;;;;;;13.17;70.53;97732.31;10526206;28;20067;-68
2023/06/16 02:18:32;;;;;;;4.80;3.22;;;;;;;13.25;70.50;97732.09;10512238;28;20067;-68
2023/06/16 02:23:52;;;;;;;5.47;3.20;;;;;;;13.27;70.43;97726.59;10525673;28;20485;-68
2023/06/16 02:29:13;;;;;;;4.75;3.13;;;;;;;13.23;70.20;97723.56;10525550;28;20051;-68
2023/06/16 02:34:34;;;;;;;4.43;3.30;;;;;;;13.16;70.50;97721.72;10511197;28;20120;-68
2023/06/16 02:39:55;;;;;;;5.88;3.35;;;;;;;13.18;70.47;97725.38;10497377;28;20114;-69
2023/06/16 02:45:16;;;;;;;4.80;2.58;;;;;;;13.22;70.38;97713.72;10497065;28;20116;-69
2023/06/16 02:50:38;;;;;;;5.55;2.85;;;;;;;13.28;70.23;97711.22;10497471;28;20112;-68
2023/06/16 02:56:03;;;;;;;6.53;3.70;;;;;;;13.31;70.24;97701.59;10497996;28;20111;-68
2023/06/16 03:01:29;;;;;;;6.15;3.42;;;;;;;13.26;69.89;97699.19;10510642;28;20569;-69
2023/06/16 03:07:06;;;;;;;4.97;2.92;;;;;;;13.23;70.13;97703.94;10501344;28;20060;-68
2023/06/16 03:12:32;;;;;;;3.97;3.17;;;;;;;13.22;70.15;97702.50;10511057;28;20040;-68
2023/06/16 03:17:59;;;;;;;6.20;3.40;;;;;;;13.25;70.17;97692.84;10510686;28;20486;-69
2023/06/16 03:23:23;;;;;;;5.65;3.35;;;;;;;13.35;69.99;97698.28;10524574;28;20063;-69
2023/06/16 03:28:45;;;;;;;4.82;2.92;;;;;;;13.40;69.71;97702.75;10495974;28;20028;-68
2023/06/16 03:34:06;;;;;;;5.93;3.50;;;;;;;13.50;69.98;97694.91;10517037;28;20135;-68
2023/06/16 03:39:47;;;;;;;5.00;3.60;;;;;;;13.63;69.58;97710.34;10520653;28;20123;-71
2023/06/16 03:45:08;;;;;;;5.20;3.50;;;;;;;13.62;69.20;97706.09;10503584;28;20442;-69
2023/06/16 03:50:28;;;;;;;7.68;3.92;;;;;;;13.68;68.97;97698.00;10517511;28;20056;-69
2023/06/16 03:55:49;;;;;;;8.95;3.83;;;;;;;13.81;68.99;97700.13;10531071;28;20496;-68
2023/06/16 04:01:10;;;;;;;8.25;3.60;;;;;;;14.06;68.82;97704.22;10517199;28;20066;-69
2023/06/16 04:06:34;;;;;;;6.20;3.20;;;;;;;14.34;68.36;97714.16;10516942;28;20056;-69
2023/06/16 04:11:55;;;;;;;;;;;;;;;14.53;67.74;97710.97;10517228;28;20056;-69
2023/06/16 04:17:17;;;;;;;5.35;3.63;;;;;;;14.72;67.52;97723.13;10545889;28;19962;-69
2023/06/16 04:22:39;;;;;;;6.57;3.80;;;;;;;14.78;67.22;97720.63;10516346;28;20123;-68
2023/06/16 04:28:01;;;;;;;6.50;3.65;;;;;;;15.04;67.18;97721.22;10516244;28;20432;-69
2023/06/16 04:33:23;;;;;;;6.50;3.35;;;;;;;15.45;66.85;97709.88;10502258;28;20434;-69
2023/06/16 04:38:46;;;;;;;9.18;3.83;;;;;;;16.07;65.75;97711.38;10516043;28;20462;-69
2023/06/16 04:44:08;;;;;;;7.38;3.38;;;;;;;16.63;65.27;97712.44;10528068;28;20035;-68
2023/06/16 04:49:29;;;;;;;7.63;4.05;;;;;;;17.16;64.17;97718.22;10515171;28;20040;-69
2023/06/16 04:54:50;;;;;;;6.38;3.38;;;;;;;17.73;63.11;97719.81;10501177;28;20040;-69
2023/06/16 05:00:12;;;;;;;5.85;3.30;;;;;;;18.15;62.06;97717.19;10514577;28;20068;-69
2023/06/16 05:05:35;;;;;;;4.60;3.22;;;;;;;18.21;60.46;97709.63;10514235;28;20044;-69
2023/06/16 05:10:57;;;;;;;7.13;3.87;;;;;;;18.50;60.16;97711.41;10514706;28;20047;-69
2023/06/16 05:16:18;;;;;;;5.78;3.40;;;;;;;18.70;58.67;97711.41;10528426;28;20036;-70
2023/06/16 05:21:39;;;;;;;7.80;3.30;;;;;;;18.79;58.67;97707.50;10500275;28;20082;-69
2023/06/16 05:27:01;;;;;;;6.63;3.63;;;;;;;18.81;57.93;97712.50;10513540;28;20036;-69
2023/06/16 05:32:23;;;;;;;5.53;3.30;;;;;;;18.75;58.03;97718.69;10513348;28;20495;-68
2023/06/16 05:37:44;;;;;;;5.03;2.95;;;;;;;18.78;57.18;97719.47;10499382;28;20093;-69
2023/06/16 05:43:06;;;;;;;5.65;3.72;;;;;;;18.98;56.71;97716.63;10512740;28;20078;-69
2023/06/16 05:48:27;;;;;;;7.40;3.85;;;;;;;19.31;56.47;97724.81;10512772;28;20036;-69
2023/06/16 05:53:48;;;;;;;14.75;5.53;;;;;;;19.45;55.43;97730.22;10526126;28;20153;-68
2023/06/16 05:59:10;;;;;;;7.03;3.80;;;;;;;19.44;54.94;97728.75;10507248;28;20429;-68
2023/06/16 06:04:32;;;;;;;5.80;3.47;;;;;;;19.19;54.39;97730.06;10511958;28;20124;-69
2023/06/16 06:09:58;;;;;;;7.03;3.90;;;;;;;19.31;54.30;97732.59;10513545;28;20055;-68
2023/06/16 06:15:19;;;;;;;6.95;4.05;;;;;;;19.54;53.67;97734.75;10525516;28;20139;-69
2023/06/16 06:20:43;;;;;;;6.72;3.90;;;;;;;20.33;52.99;97744.97;10525326;28;20059;-68
2023/06/16 06:26:05;;;;;;;4.82;3.38;;;;;;;21.17;51.37;97741.63;10497211;28;20044;-68
2023/06/16 06:31:26;;;;;;;7.55;3.25;;;;;;;22.26;50.27;97752.78;10525211;28;20089;-69
2023/06/16 06:36:47;;;;;;;7.90;3.55;;;;;;;23.20;48.46;97743.28;10525005;28;20142;-69
2023/06/16 06:42:12;;;;;;;7.65;3.28;;;;;;;24.08;46.37;97742.56;10510972;28;20044;-68
2023/06/16 06:47:44;;;;;;;7.20;3.38;;;;;;;24.91;44.46;97750.78;10512498;28;20040;-69
2023/06/16 06:53:06;;;;;;;7.05;3.17;;;;;;;26.33;42.23;97751.97;10496607;28;20068;-68
2023/06/16 06:58:26;;;;;;;7.13;3.15;;;;;;;26.60;40.42;97750.00;10539500;28;20044;-69
2023/06/16 07:03:47;;;;;;;9.18;3.03;;;;;;;25.93;40.12;97752.44;10524263;28;20098;-68
2023/06/16 07:09:08;;;;;;;7.43;3.65;;;;;;;26.75;38.70;97754.34;10523696;28;20036;-68
2023/06/16 07:14:38;;;;;;;6.82;3.33;;;;;;;27.67;36.85;97766.75;10511548;28;20490;-69
2023/06/16 07:19:59;;;;;;;5.60;2.92;;;;;;;28.40;34.96;97759.50;10524191;28;20063;-69
2023/06/16 07:25:21;;;;;;;5.82;3.40;;;;;;;28.40;34.16;97759.50;10510118;28;20377;-69
2023/06/16 07:30:42;;;;;;;4.87;2.90;;;;;;;28.86;33.33;97758.63;10538813;28;20445;-69
2023/06/16 07:36:03;;;;;;;6.47;3.78;;;;;;;28.69;30.66;97752.22;10495776;28;20044;-69
2023/06/16 07:41:24;;;;;;;5.73;2.80;;;;;;;28.57;30.03;97752.28;10509904;28;20531;-70
2023/06/16 07:46:45;;;;;;;4.53;2.53;;;;;;;28.72;30.42;97747.19;10523292;28;20040;-70
2023/06/16 07:52:07;;;;;;;4.95;2.90;;;;;;;28.57;29.18;97745.78;10538678;28;20036;-70
2023/06/16 07:57:28;;;;;;;5.60;2.50;;;;;;;28.29;29.45;97738.03;10523247;28;20465;-70
2023/06/16 08:02:51;;;;;;;5.93;2.97;;;;;;;28.88;29.11;97740.66;10538144;28;20044;-69
2023/06/16 08:08:12;;;;;;;6.27;2.73;;;;;;;29.58;29.17;97739.50;10508961;28;20063;-69
2023/06/16 08:13:34;;;;;;;6.38;2.92;;;;;;;30.41;28.47;97740.19;10537879;28;20281;-72
2023/06/16 08:18:57;;;;;;;7.70;2.92;;;;;;;30.49;27.13;97740.78;10527697;28;20041;-70
2023/06/16 08:24:19;;;;;;;6.45;2.92;;;;;;;29.74;25.70;97741.53;10530344;28;20575;-72
2023/06/16 08:29:41;;;;;;;7.90;3.38;;;;;;;30.22;25.74;97736.09;10529507;28;20044;-70
2023/06/16 08:35:02;;;;;;;4.82;2.50;;;;;;;30.00;26.68;97729.06;10529685;28;20036;-70
2023/06/16 08:40:24;;;;;;;6.00;2.70;;;;;;;30.59;26.27;97731.31;10529684;28;20044;-70
2023/06/16 08:45:45;;;;;;;7.88;3.03;;;;;;;31.78;25.62;97719.56;10529006;28;20046;-70
2023/06/16 08:51:06;;;;;;;6.85;2.65;;;;;;;32.60;24.67;97727.41;10544034;28;20036;-70
2023/06/16 08:56:33;;;;;;;5.40;2.80;;;;;;;33.35;23.88;97724.34;10514828;28;20477;-70
2023/06/16 09:01:55;;;;;;;5.05;2.88;;;;;;;33.00;23.23;97725.84;10501756;28;20051;-71
2023/06/16 09:07:19;;;;;;;8.35;2.50;;;;;;;31.80;23.54;97733.22;10514552;28;20374;-70
2023/06/16 09:12:40;;;;;;;5.05;2.28;;;;;;;30.78;24.02;97717.41;10543177;28;20053;-70
2023/06/16 09:18:06;;;;;;;4.37;2.40;;;;;;;29.50;24.93;97722.31;10514021;28;20112;-70
2023/06/16 09:23:28;;;;;;;2.90;2.28;;;;;;;28.55;26.00;97729.28;10527826;28;20056;-69
2023/06/16 09:28:51;;;;;;;;;;;;;;;28.57;26.63;97717.81;10542448;28;20036;-70
2023/06/16 09:34:12;;;;;;;4.28;2.53;;;;;;;29.87;25.93;97710.50;10508428;28;19920;-70
2023/06/16 09:39:33;;;;;;;6.90;2.70;;;;;;;31.36;25.04;97702.91;10527010;28;20047;-70
2023/06/16 09:44:53;;;;;;;3.80;2.53;;;;;;;31.63;24.45;97695.97;10513104;28;20043;-71
2023/06/16 09:50:15;;;;;;;7.57;3.60;;;;;;;31.22;24.87;97680.78;10512509;28;20089;-70
2023/06/16 09:55:38;;;;;;;6.35;3.03;;;;;;;31.23;24.57;97673.56;10512484;28;20036;-70
2023/06/16 10:01:00;;;;;;;4.30;2.63;;;;;;;31.25;24.99;97656.22;10512317;28;20462;-70
2023/06/16 10:06:20;;;;;;;5.07;2.63;;;;;;;31.47;24.90;97663.81;10525954;28;20066;-70
2023/06/16 10:11:43;;;;;;;3.38;2.50;;;;;;;30.76;25.24;97674.22;10540789;28;20052;-69
2023/06/16 10:17:05;;;;;;;3.58;2.90;;;;;;;30.68;25.03;97663.53;10511859;28;20099;-70
2023/06/16 10:22:26;;;;;;;3.80;2.13;;;;;;;30.81;24.31;97669.84;10512304;28;20036;-69
2023/06/16 10:27:47;;;;;;;;;;;;;;;30.90;24.22;97674.03;10525672;28;20115;-70
2023/06/16 10:33:16;;;;;;;2.55;2.10;;;;;;;30.94;23.14;97670.38;10525054;28;19916;-70
2023/06/16 10:38:39;;;;;;;3.20;2.22;;;;;;;31.17;23.66;97667.88;10511541;28;20040;-70
2023/06/16 10:44:26;;;;;;;3.78;2.53;;;;;;;31.37;23.35;97673.34;10510366;28;20386;-70
2023/06/16 10:49:51;;;;;;;5.40;2.17;;;;;;;31.35;22.77;97676.25;10539640;28;20040;-70
2023/06/16 10:55:31;;;;;;;3.67;2.20;;;;;;;30.23;23.32;97679.94;10511610;28;20036;-71
2023/06/16 11:01:02;;;;;;;4.20;1.80;;;;;;;29.46;23.93;97676.34;10511627;28;20079;-70
2023/06/16 11:06:23;;;;;;;3.67;1.90;;;;;;;29.02;24.39;97672.34;10539085;28;20070;-71
2023/06/16 11:11:44;;;;;;;3.05;2.08;;;;;;;28.95;24.90;97673.84;10539230;28;20067;-70
2023/06/16 11:17:06;;;;;;;2.10;1.77;;;;;;;28.92;25.09;97675.28;10538991;28;20040;-70
2023/06/16 11:22:30;;;;;;;3.03;1.65;;;;;;;29.12;25.23;97662.22;10510201;28;20040;-70
2023/06/16 11:27:51;;;;;;;2.72;1.90;;;;;;;28.64;25.62;97661.78;10538928;28;20040;-70
2023/06/16 11:33:16;;;;;;;3.03;1.70;;;;;;;27.62;26.28;97659.22;10523617;28;20040;-70
2023/06/16 11:38:37;;;;;;;4.95;1.77;;;;;;;27.08;26.69;97651.34;10523608;28;20036;-70
2023/06/16 11:43:58;;;;;;;4.07;2.00;;;;;;;26.52;27.50;97658.38;10523489;28;20476;-70
2023/06/16 11:49:19;;;;;;;3.50;2.00;;;;;;;26.55;27.68;97644.81;10523667;28;20036;-69
2023/06/16 11:54:41;;;;;;;3.35;2.35;;;;;;;26.83;27.55;97639.13;10501624;28;20032;-71
2023/06/16 12:00:04;;;;;;;4.60;2.20;;;;;;;27.26;27.60;97642.03;10531271;28;20040;-70
2023/06/16 12:05:28;;;;;;;3.85;2.10;;;;;;;27.87;26.93;97636.25;10545979;28;20044;-70
2023/06/16 12:10:53;;;;;;;6.80;2.20;;;;;;;28.50;26.27;97621.69;10530787;28;20400;-70
2023/06/16 12:16:14;;;;;;;4.43;2.22;;;;;;;29.04;26.10;97625.66;10530911;28;20527;-70
2023/06/16 12:21:35;;;;;;;7.00;2.50;;;;;;;29.49;25.41;97623.13;10530055;28;20086;-70
2023/06/16 12:26:56;;;;;;;3.70;2.03;;;;;;;30.22;24.76;97621.66;10545349;28;20040;-70
2023/06/16 12:32:18;;;;;;;7.32;2.70;;;;;;;30.57;23.92;97612.53;10529832;28;20277;-70
2023/06/16 12:37:40;;;;;;;6.10;2.50;;;;;;;30.46;23.72;97641.47;10529711;28;20060;-70
2023/06/16 12:43:20;;;;;;;5.60;2.50;;;;;;;29.91;24.53;97641.41;10529516;28;20040;-70
2023/06/16 12:48:41;;;;;;;4.40;2.33;;;;;;;29.68;24.68;97651.72;10529207;28;20110;-70
2023/06/16 12:54:02;;;;;;;4.07;2.20;;;;;;;28.25;27.25;97672.69;10528963;28;20128;-70
2023/06/16 12:59:22;;;;;;;4.15;2.25;;;;;;;27.28;28.50;97677.13;10514764;28;20397;-70
2023/06/16 13:04:44;;;;;;;3.40;1.80;;;;;;;26.70;29.58;97677.75;10499555;28;20461;-70
2023/06/16 13:10:06;;;;;;;4.18;1.90;;;;;;;26.97;29.45;97682.09;10515008;28;20040;-69
2023/06/16 13:15:27;;;;;;;3.50;1.87;;;;;;;27.05;29.37;97685.00;10500642;28;20036;-70
2023/06/16 13:20:48;;;;;;;2.67;2.03;;;;;;;27.03;29.81;97702.19;10528368;28;20068;-69
2023/06/16 13:26:13;;;;;;;4.63;1.73;;;;;;;26.82;30.33;97695.66;10527808;28;20077;-70
2023/06/16 13:31:34;;;;;;;3.67;2.13;;;;;;;26.16;30.75;97705.41;10499591;28;20043;-69
2023/06/16 13:36:56;;;;;;;3.83;1.90;;;;;;;25.35;33.11;97699.09;10519616;28;20039;-69
2023/06/16 13:42:17;;;;;;;3.90;1.90;;;;;;;24.58;35.53;97684.75;10513131;28;20043;-69
2023/06/16 13:47:37;;;;;;;7.90;2.25;;;;;;;23.82;37.16;97682.31;10512549;28;20036;-69
2023/06/16 13:52:58;;;;;;;6.50;2.47;;;;;;;24.37;37.87;97686.66;10526356;28;20042;-69
2023/06/16 13:58:19;;;;;;;4.13;2.20;;;;;;;25.04;37.24;97689.56;10512179;28;20064;-69
2023/06/16 14:03:40;;;;;;;7.38;2.85;;;;;;;24.69;36.75;97692.00;10511985;28;20123;-69
2023/06/16 14:09:01;;;;;;;3.60;2.27;;;;;;;24.16;37.94;97668.56;10525924;28;20043;-69
2023/06/16 14:14:22;;;;;;;3.53;2.40;;;;;;;23.98;38.27;97668.31;10511624;28;20028;-69
2023/06/16 14:19:43;;;;;;;3.22;2.33;;;;;;;23.75;38.79;97655.91;10525786;28;20139;-69
2023/06/16 14:25:05;;;;;;;4.45;1.98;;;;;;;23.40;38.89;97658.19;10504739;28;20040;-69
2023/06/16 14:30:25;;;;;;;4.38;2.03;;;;;;;23.07;39.44;97656.25;10540283;28;20040;-69
2023/06/16 14:35:46;;;;;;;4.50;1.83;;;;;;;22.79;39.37;97665.69;10524868;28;20096;-69
2023/06/16 14:41:07;;;;;;;3.20;2.17;;;;;;;22.56;40.09;97658.84;10540088;28;20044;-69
2023/06/16 14:46:28;;;;;;;8.05;2.40;;;;;;;22.40;40.70;97652.88;10539790;28;20531;-69
2023/06/16 14:51:49;;;;;;;6.30;2.25;;;;;;;22.15;41.72;97667.97;10539999;28;20032;-69
2023/06/16 14:57:11;;;;;;;6.43;2.38;;;;;;;22.02;42.82;97657.75;10505540;28;20040;-68
2023/06/16 15:02:31;;;;;;;6.32;2.33;;;;;;;22.15;43.68;97657.34;10524184;28;20064;-69
2023/06/16 15:07:53;;;;;;;7.03;2.25;;;;;;;22.30;44.47;97652.66;10510551;28;20039;-69
2023/06/16 15:13:14;;;;;;;4.32;2.20;;;;;;;22.15;44.84;97650.94;10509942;28;20066;-69
2023/06/16 15:18:34;;;;;;;3.03;1.58;;;;;;;22.08;45.32;97660.72;10523864;28;20397;-68
2023/06/16 15:23:55;;;;;;;2.72;1.50;;;;;;;22.26;45.79;97653.28;10524110;28;20032;-69
2023/06/16 15:29:16;;;;;;;2.45;1.27;;;;;;;22.77;46.19;97662.06;10529766;28;20074;-69
2023/06/16 15:34:37;;;;;;;1.52;0.70;;;;;;;23.08;45.47;97669.78;10532492;28;20036;-69
2023/06/16 15:39:58;;;;;;;1.90;0.63;;;;;;;23.26;45.48;97657.97;10547174;28;20085;-68
2023/06/16 15:45:19;;;;;;;0.80;0.40;;;;;;;23.30;44.33;97666.56;10532228;28;20043;-69
2023/06/16 15:50:40;;;;;;;1.52;0.47;;;;;;;22.53;44.21;97663.06;10517441;28;20040;-69
2023/06/16 15:56:01;;;;;;;2.60;0.40;;;;;;;22.22;44.90;97664.59;10531566;28;20032;-69
2023/06/16 16:01:22;;;;;;;1.48;0.40;;;;;;;22.23;45.20;97665.31;10517231;28;20131;-69
2023/06/16 16:06:45;;;;;;;1.10;0.40;;;;;;;22.25;44.52;97665.34;10531297;28;20036;-69
2023/06/16 16:12:06;;;;;;;1.23;0.30;;;;;;;22.20;44.95;97672.34;10530807;28;20039;-68
2023/06/16 16:17:28;;;;;;;2.25;0.50;;;;;;;22.12;44.95;97664.38;10516703;28;20077;-68
2023/06/16 16:22:49;;;;;;;2.67;0.40;;;;;;;21.99;44.71;97674.00;10516713;28;20073;-68
2023/06/16 16:28:10;;;;;;;1.70;0.45;;;;;;;21.77;44.94;97670.69;10530006;28;20032;-69
2023/06/16 16:33:30;;;;;;;0.90;0.35;;;;;;;21.58;44.98;97678.06;10516147;28;20390;-69
2023/06/16 16:38:51;;;;;;;2.33;0.40;;;;;;;21.50;45.52;97672.19;10529874;28;20114;-69
2023/06/16 16:44:11;;;;;;;0.85;0.40;;;;;;;21.28;45.50;97675.94;10529766;28;20133;-69
2023/06/16 16:49:32;;;;;;;1.55;0.47;;;;;;;20.94;46.22;97670.13;10515395;28;20055;-68
2023/06/16 16:54:53;;;;;;;1.55;0.45;;;;;;;20.71;46.75;97673.75;10544210;28;20101;-69
2023/06/16 17:00:14;;;;;;;0.80;0.40;;;;;;;20.60;47.41;97678.44;10515082;28;20055;-69
2023/06/16 17:05:35;;;;;;;0.70;0.40;;;;;;;20.36;47.83;97680.56;10528607;28;20056;-69
2023/06/16 17:10:56;;;;;;;1.15;0.57;;;;;;;20.15;48.70;97679.25;10514623;28;20036;-69
2023/06/16 17:16:16;;;;;;;0.90;0.55;;;;;;;20.13;48.74;97682.75;10528615;28;20093;-69
2023/06/16 17:21:38;;;;;;;1.77;0.70;;;;;;;20.20;49.02;97681.56;10514469;28;20488;-69
2023/06/16 17:26:59;;;;;;;1.70;0.73;;;;;;;20.35;48.43;97681.94;10528267;28;20040;-69
2023/06/16 17:32:20;;;;;;;1.75;1.05;;;;;;;20.41;48.77;97694.19;10527635;28;20047;-69
2023/06/16 17:37:45;;;;;;;1.50;1.00;;;;;;;20.14;48.58;97698.38;10527717;28;20097;-69
2023/06/16 17:43:06;;;;;;;1.23;0.90;;;;;;;19.93;49.04;97705.56;10542299;28;20039;-69
2023/06/16 17:48:27;;;;;;;2.38;0.90;;;;;;;19.89;49.42;97701.88;10513175;28;20044;-68
2023/06/16 17:53:47;;;;;;;3.58;1.05;;;;;;;19.81;49.08;97701.63;10499313;28;20385;-69
2023/06/16 17:59:08;;;;;;;1.65;1.20;;;;;;;19.31;49.58;97696.53;10526442;28;20042;-68
2023/06/16 18:04:29;;;;;;;6.00;1.45;;;;;;;18.89;51.22;97687.34;10512391;28;20044;-69
2023/06/16 18:09:49;;;;;;;2.15;1.45;;;;;;;18.68;51.87;97699.31;10541202;28;20064;-69
2023/06/16 18:15:10;;;;;;;2.83;1.48;;;;;;;18.53;52.84;97701.63;10526084;28;20107;-68
2023/06/16 18:20:31;;;;;;;4.75;1.40;;;;;;;18.48;53.04;97697.19;10511843;28;20146;-69
2023/06/16 18:25:52;;;;;;;2.00;1.50;;;;;;;18.44;53.54;97702.00;10498066;28;20374;-68
2023/06/16 18:31:13;;;;;;;3.28;1.73;;;;;;;18.44;53.40;97697.06;10525258;28;20032;-68
2023/06/16 18:36:34;;;;;;;3.17;1.83;;;;;;;18.48;53.74;97702.84;10511453;28;20467;-68
2023/06/16 18:41:54;;;;;;;3.75;2.30;;;;;;;18.52;53.88;97708.63;10511300;28;20048;-68
2023/06/16 18:47:15;;;;;;;5.78;1.90;;;;;;;18.49;54.42;97709.94;10510844;28;20452;-67
2023/06/16 18:52:36;;;;;;;2.47;1.63;;;;;;;18.47;54.10;97717.63;10524903;28;20059;-68
2023/06/16 18:58:00;;;;;;;2.40;1.80;;;;;;;18.39;54.30;97723.72;10539614;28;20052;-68
2023/06/16 19:03:21;;;;;;;3.28;1.70;;;;;;;18.31;54.26;97724.13;10504382;28;20107;-68
2023/06/16 19:08:43;;;;;;;2.25;1.50;;;;;;;18.26;54.48;97713.34;10497958;28;20032;-69
2023/06/16 19:14:03;;;;;;;3.50;1.60;;;;;;;18.17;54.96;97726.44;10469139;28;20390;-69
2023/06/16 19:19:24;;;;;;;3.47;1.75;;;;;;;18.01;55.04;97732.19;10497868;28;20070;-70
2023/06/16 19:24:45;;;;;;;3.83;1.63;;;;;;;17.99;55.38;97749.06;10482658;28;20079;-69
2023/06/16 19:30:06;;;;;;;2.22;1.65;;;;;;;17.93;55.57;97740.34;10482486;28;20409;-69
2023/06/16 19:35:27;;;;;;;2.55;1.70;;;;;;;17.88;55.61;97738.75;10468204;28;20044;-69
2023/06/16 19:40:48;;;;;;;3.70;2.08;;;;;;;17.69;55.85;97736.56;10482215;28;20087;-68
2023/06/16 19:46:09;;;;;;;3.47;1.65;;;;;;;17.49;56.41;97747.78;10482359;28;20044;-69
2023/06/16 19:51:30;;;;;;;4.03;1.58;;;;;;;17.32;56.81;97743.56;10481960;28;20064;-70
2023/06/16 19:56:52;;;;;;;2.25;1.70;;;;;;;17.12;57.01;97745.53;10482149;28;20067;-69
2023/06/16 20:02:13;;;;;;;5.90;1.58;;;;;;;16.92;57.72;97741.88;10491966;28;20072;-69
2023/06/16 20:07:36;;;;;;;4.40;2.10;;;;;;;16.72;58.24;97739.63;10538623;28;20114;-69
2023/06/16 20:12:57;;;;;;;;;;;;;;;16.51;59.57;97731.63;10511908;28;20044;-68
2023/06/16 20:18:18;;;;;;;3.17;2.05;;;;;;;16.39;59.05;97731.09;10546151;28;19920;-69
2023/06/16 20:23:39;;;;;;;3.75;2.13;;;;;;;16.28;59.06;97725.00;10530689;28;20112;-69
2023/06/16 20:28:59;;;;;;;2.88;2.03;;;;;;;16.19;59.62;97728.81;10530442;28;20070;-69
2023/06/16 20:34:20;;;;;;;3.03;2.20;;;;;;;16.18;60.03;97724.53;10531909;28;20037;-70
2023/06/16 20:39:44;;;;;;;3.73;2.33;;;;;;;16.11;60.36;97725.63;10533385;28;20060;-69
2023/06/16 20:45:06;;;;;;;3.35;2.30;;;;;;;15.98;60.55;97721.53;10533937;28;20060;-69
2023/06/16 20:50:30;;;;;;;4.13;2.42;;;;;;;15.92;60.78;97720.50;10530415;28;20040;-69
2023/06/16 20:55:51;;;;;;;4.63;2.10;;;;;;;15.82;61.58;97717.22;10544793;28;20107;-69
2023/06/16 21:01:13;;;;;;;6.00;2.50;;;;;;;15.77;61.70;97719.16;10529239;28;20068;-69
2023/06/16 21:06:35;;;;;;;4.60;3.03;;;;;;;15.76;61.94;97719.78;10543870;28;20113;-70
2023/06/16 21:11:56;;;;;;;4.63;2.78;;;;;;;15.79;62.13;97707.25;10515560;28;20060;-70
2023/06/16 21:17:17;;;;;;;6.07;3.00;;;;;;;15.78;62.40;97706.53;10528863;28;20116;-69
2023/06/16 21:22:39;;;;;;;5.55;2.45;;;;;;;15.74;62.49;97711.97;10543740;28;20043;-69
2023/06/16 21:28:00;;;;;;;3.83;2.50;;;;;;;15.73;62.86;97707.72;10513759;28;20079;-68
2023/06/16 21:33:21;;;;;;;4.50;2.42;;;;;;;15.67;63.16;97701.78;10528064;28;20457;-69
2023/06/16 21:38:43;;;;;;;5.50;3.13;;;;;;;15.55;63.51;97699.09;10513719;28;20116;-70
2023/06/16 21:44:05;;;;;;;5.87;3.43;;;;;;;15.51;63.81;97700.97;10527800;28;20060;-69
2023/06/16 21:49:25;;;;;;;4.55;2.90;;;;;;;15.42;63.59;97694.25;10513430;28;20769;-69
2023/06/16 21:54:46;;;;;;;3.67;2.67;;;;;;;15.31;64.45;97695.84;10526929;28;20170;-69
2023/06/16 22:00:07;;;;;;;4.75;2.58;;;;;;;15.37;64.66;97696.16;10526943;28;20066;-69
2023/06/16 22:05:28;;;;;;;4.63;2.85;;;;;;;15.38;64.38;97696.88;10526191;28;20113;-68
2023/06/16 22:10:49;;;;;;;5.22;2.60;;;;;;;15.38;64.91;97694.78;10498322;28;20060;-69
2023/06/16 22:16:09;;;;;;;4.15;2.90;;;;;;;15.40;64.84;97694.88;10525996;28;20079;-69
2023/06/16 22:21:33;;;;;;;5.57;2.90;;;;;;;15.44;65.01;97691.53;10525993;28;20064;-69
2023/06/16 22:26:54;;;;;;;6.30;3.05;;;;;;;15.39;64.87;97687.81;10540952;28;20124;-69
2023/06/16 22:32:31;;;;;;;6.25;3.55;;;;;;;15.35;65.07;97687.63;10540500;28;20123;-69
2023/06/16 22:37:51;;;;;;;7.53;2.90;;;;;;;15.28;65.00;97685.13;10540507;28;20044;-69
2023/06/16 22:43:12;;;;;;;3.75;2.85;;;;;;;15.16;65.03;97680.38;10511037;28;20044;-69
2023/06/16 22:48:33;;;;;;;4.50;2.35;;;;;;;15.09;65.29;97678.63;10525065;28;20060;-69
2023/06/16 22:53:55;;;;;;;4.05;2.60;;;;;;;15.03;65.56;97683.22;10540321;28;20111;-69
2023/06/16 22:59:15;;;;;;;4.75;2.70;;;;;;;15.07;65.44;97660.94;10510904;28;20496;-70
2023/06/16 23:04:36;;;;;;;3.15;2.40;;;;;;;15.11;65.49;97664.66;10539707;28;20459;-69
2023/06/16 23:09:57;;;;;;;5.13;2.67;;;;;;;15.16;65.44;97657.91;10539536;28;20576;-69
2023/06/16 23:15:17;;;;;;;3.97;2.45;;;;;;;15.14;65.07;97654.97;10524554;28;20111;-69
2023/06/16 23:20:38;;;;;;;2.90;2.40;;;;;;;15.12;65.10;97659.78;10539406;28;20040;-69
2023/06/16 23:26:01;;;;;;;4.65;2.70;;;;;;;15.14;65.33;97654.97;10510457;28;20063;-69
2023/06/16 23:31:24;;;;;;;3.73;2.60;;;;;;;15.27;65.26;97650.66;10524601;28;20158;-70
2023/06/16 23:36:45;;;;;;;3.93;2.20;;;;;;;15.38;64.98;97649.06;10539046;28;20107;-69
2023/06/16 23:42:08;;;;;;;5.18;2.35;;;;;;;15.50;65.07;97646.81;10510024;28;20390;-69
2023/06/16 23:47:29;;;;;;;3.80;2.42;;;;;;;15.53;64.70;97648.34;10511567;28;20032;-69
2023/06/16 23:52:50;;;;;;;3.00;2.50;;;;;;;15.52;64.66;97640.56;10517744;28;20112;-69
2023/06/16 23:58:11;;;;;;;5.30;2.10;;;;;;;15.46;64.62;97638.19;10503352;28;20119;-69
